createdAt,value
2017-10-03T00:00:54.866Z,1008.50
2017-10-03T00:01:54.966Z,1008.41
2017-10-03T00:02:54.833Z,1008.42
2017-10-03T00:03:54.875Z,1008.43
2017-10-03T00:04:54.804Z,1008.35
2017-10-03T00:05:54.888Z,1008.37
2017-10-03T00:06:54.769Z,1008.35
2017-10-03T00:07:54.793Z,1008.35
2017-10-03T00:08:54.744Z,1008.31
2017-10-03T00:09:54.819Z,1008.28
2017-10-03T00:10:54.719Z,1008.22
2017-10-03T00:11:54.731Z,1008.26
2017-10-03T00:12:54.699Z,1008.21
2017-10-03T00:13:54.743Z,1008.23
2017-10-03T00:14:54.652Z,1008.31
2017-10-03T00:15:54.755Z,1008.26
2017-10-03T00:16:54.610Z,1008.32
2017-10-03T00:17:54.664Z,1008.30
2017-10-03T00:18:54.583Z,1008.32
2017-10-03T00:19:54.684Z,1008.38
2017-10-03T00:20:54.556Z,1008.37
2017-10-03T00:21:54.594Z,1008.33
2017-10-03T00:22:54.515Z,1008.34
2017-10-03T00:23:54.617Z,1008.33
2017-10-03T00:24:55.369Z,1008.32
2017-10-03T00:25:54.519Z,1008.32
2017-10-03T00:26:54.458Z,1008.35
2017-10-03T00:27:54.554Z,1008.34
2017-10-03T00:28:54.419Z,1008.34
2017-10-03T00:29:54.554Z,1008.35
2017-10-03T00:30:54.392Z,1008.34
2017-10-03T00:31:54.466Z,1008.34
2017-10-03T00:32:54.360Z,1008.38
2017-10-03T00:33:54.477Z,1008.42
2017-10-03T00:34:54.330Z,1008.43
2017-10-03T00:35:54.391Z,1008.43
2017-10-03T00:36:54.298Z,1008.45
2017-10-03T00:37:54.408Z,1008.43
2017-10-03T00:38:54.263Z,1008.46
2017-10-03T00:39:54.321Z,1008.42
2017-10-03T00:40:54.239Z,1008.43
2017-10-03T00:41:54.335Z,1008.43
2017-10-03T00:42:54.195Z,1008.40
2017-10-03T00:43:54.247Z,1008.39
2017-10-03T00:44:54.168Z,1008.38
2017-10-03T00:45:54.257Z,1008.43
2017-10-03T00:46:54.142Z,1008.43
2017-10-03T00:47:54.162Z,1008.42
2017-10-03T00:48:54.101Z,1008.41
2017-10-03T00:49:54.196Z,1008.44
2017-10-03T00:50:54.073Z,1008.54
2017-10-03T00:51:54.093Z,1008.50
2017-10-03T00:52:54.038Z,1008.47
2017-10-03T00:53:54.115Z,1008.46
2017-10-03T00:54:54.008Z,1008.52
2017-10-03T00:55:54.131Z,1008.50
2017-10-03T00:56:53.982Z,1008.45
2017-10-03T00:57:54.038Z,1008.42
2017-10-03T00:58:53.943Z,1008.39
2017-10-03T00:59:54.052Z,1008.40
2017-10-03T01:00:53.911Z,1008.36
2017-10-03T01:01:53.963Z,1008.37
2017-10-03T01:02:53.889Z,1008.51
2017-10-03T01:03:53.979Z,1008.49
2017-10-03T01:04:53.836Z,1008.53
2017-10-03T01:05:53.895Z,1008.49
2017-10-03T01:06:53.810Z,1008.45
2017-10-03T01:07:53.906Z,1008.40
2017-10-03T01:08:53.779Z,1008.40
2017-10-03T01:09:53.765Z,1008.47
2017-10-03T01:10:53.821Z,1008.53
2017-10-03T01:11:53.728Z,1008.58
2017-10-03T01:12:53.837Z,1008.58
2017-10-03T01:13:53.705Z,1008.58
2017-10-03T01:14:53.744Z,1008.55
2017-10-03T01:15:53.669Z,1008.55
2017-10-03T01:16:53.774Z,1008.51
2017-10-03T01:17:53.640Z,1008.44
2017-10-03T01:18:53.677Z,1008.48
2017-10-03T01:19:53.600Z,1008.37
2017-10-03T01:20:53.684Z,1008.39
2017-10-03T01:21:53.557Z,1008.41
2017-10-03T01:22:53.615Z,1008.47
2017-10-03T01:23:53.530Z,1008.45
2017-10-03T01:24:53.621Z,1008.47
2017-10-03T01:25:53.491Z,1008.44
2017-10-03T01:26:53.535Z,1008.48
2017-10-03T01:27:53.466Z,1008.44
2017-10-03T01:28:53.541Z,1008.44
2017-10-03T01:29:53.430Z,1008.35
2017-10-03T01:30:53.454Z,1008.39
2017-10-03T01:31:53.409Z,1008.46
2017-10-03T01:32:53.475Z,1008.46
2017-10-03T01:33:53.381Z,1008.50
2017-10-03T01:34:53.488Z,1008.51
2017-10-03T01:35:53.336Z,1008.49
2017-10-03T01:36:53.401Z,1008.46
2017-10-03T01:37:53.305Z,1008.45
2017-10-03T01:38:53.418Z,1008.46
2017-10-03T01:39:53.280Z,1008.52
2017-10-03T01:40:53.338Z,1008.53
2017-10-03T01:41:53.240Z,1008.47
2017-10-03T01:42:53.349Z,1008.48
2017-10-03T01:43:53.208Z,1008.47
2017-10-03T01:44:53.253Z,1008.49
2017-10-03T01:45:53.202Z,1008.42
2017-10-03T01:46:53.269Z,1008.49
2017-10-03T01:47:53.198Z,1008.50
2017-10-03T01:48:53.180Z,1008.53
2017-10-03T01:49:53.129Z,1008.58
2017-10-03T01:50:53.196Z,1008.58
2017-10-03T01:51:53.085Z,1008.65
2017-10-03T01:52:53.108Z,1008.64
2017-10-03T01:53:53.056Z,1008.59
2017-10-03T01:54:53.123Z,1008.66
2017-10-03T01:55:53.031Z,1008.70
2017-10-03T01:56:53.127Z,1008.64
2017-10-03T01:57:52.987Z,1008.74
2017-10-03T01:58:53.053Z,1008.74
2017-10-03T01:59:52.961Z,1008.78
2017-10-03T02:00:53.060Z,1008.79
2017-10-03T02:01:52.922Z,1008.74
2017-10-03T02:02:52.975Z,1008.74
2017-10-03T02:03:52.895Z,1008.72
2017-10-03T02:04:52.985Z,1008.75
2017-10-03T02:05:52.862Z,1008.72
2017-10-03T02:06:52.901Z,1008.72
2017-10-03T02:07:52.823Z,1008.69
2017-10-03T02:08:52.905Z,1008.68
2017-10-03T02:09:52.802Z,1008.66
2017-10-03T02:10:52.789Z,1008.65
2017-10-03T02:11:52.837Z,1008.65
2017-10-03T02:12:52.750Z,1008.62
2017-10-03T02:13:52.849Z,1008.65
2017-10-03T02:14:52.728Z,1008.62
2017-10-03T02:15:52.765Z,1008.68
2017-10-03T02:16:52.750Z,1008.71
2017-10-03T02:17:52.767Z,1008.67
2017-10-03T02:18:52.659Z,1008.72
2017-10-03T02:19:52.682Z,1008.72
2017-10-03T02:20:52.637Z,1008.72
2017-10-03T02:21:52.703Z,1008.74
2017-10-03T02:22:52.596Z,1008.67
2017-10-03T02:23:52.625Z,1008.66
2017-10-03T02:24:52.556Z,1008.66
2017-10-03T02:25:52.629Z,1008.66
2017-10-03T02:26:52.524Z,1008.76
2017-10-03T02:27:52.537Z,1008.74
2017-10-03T02:28:52.497Z,1008.79
2017-10-03T02:29:52.553Z,1008.81
2017-10-03T02:30:52.450Z,1008.79
2017-10-03T02:31:52.562Z,1008.81
2017-10-03T02:32:52.427Z,1008.81
2017-10-03T02:33:52.481Z,1008.80
2017-10-03T02:34:52.407Z,1008.81
2017-10-03T02:35:52.499Z,1008.82
2017-10-03T02:36:52.362Z,1008.80
2017-10-03T02:37:52.401Z,1008.80
2017-10-03T02:38:52.322Z,1008.75
2017-10-03T02:39:52.420Z,1008.77
2017-10-03T02:40:52.294Z,1008.78
2017-10-03T02:41:52.338Z,1008.81
2017-10-03T02:42:52.261Z,1008.81
2017-10-03T02:43:52.350Z,1008.80
2017-10-03T02:44:52.236Z,1008.76
2017-10-03T02:45:52.263Z,1008.81
2017-10-03T02:46:52.208Z,1008.88
2017-10-03T02:47:52.270Z,1008.80
2017-10-03T02:48:52.166Z,1008.84
2017-10-03T02:49:52.186Z,1008.83
2017-10-03T02:50:52.137Z,1008.85
2017-10-03T02:51:52.204Z,1008.82
2017-10-03T02:52:52.104Z,1008.83
2017-10-03T02:53:52.224Z,1008.84
2017-10-03T02:54:52.076Z,1008.83
2017-10-03T02:55:52.127Z,1008.83
2017-10-03T02:56:52.041Z,1008.87
2017-10-03T02:57:52.154Z,1008.96
2017-10-03T02:58:52.006Z,1008.88
2017-10-03T02:59:52.052Z,1008.89
2017-10-03T03:00:51.972Z,1008.95
2017-10-03T03:01:52.068Z,1008.93
2017-10-03T03:02:51.962Z,1008.88
2017-10-03T03:03:51.985Z,1008.96
2017-10-03T03:04:51.920Z,1008.96
2017-10-03T03:05:52.006Z,1008.92
2017-10-03T03:06:51.879Z,1008.94
2017-10-03T03:07:51.906Z,1008.95
2017-10-03T03:08:51.848Z,1008.94
2017-10-03T03:09:51.926Z,1008.97
2017-10-03T03:10:51.817Z,1008.95
2017-10-03T03:11:51.803Z,1008.94
2017-10-03T03:12:51.845Z,1008.93
2017-10-03T03:13:51.770Z,1008.95
2017-10-03T03:14:51.860Z,1008.97
2017-10-03T03:15:51.738Z,1009.01
2017-10-03T03:16:51.770Z,1009.00
2017-10-03T03:17:51.707Z,1009.00
2017-10-03T03:18:51.781Z,1009.02
2017-10-03T03:19:51.673Z,1009.00
2017-10-03T03:20:51.695Z,1008.95
2017-10-03T03:21:51.640Z,1009.01
2017-10-03T03:22:51.707Z,1009.05
2017-10-03T03:23:51.609Z,1009.05
2017-10-03T03:24:51.618Z,1009.06
2017-10-03T03:25:51.575Z,1009.15
2017-10-03T03:26:51.637Z,1009.17
2017-10-03T03:27:51.549Z,1009.20
2017-10-03T03:28:51.651Z,1009.20
2017-10-03T03:29:51.504Z,1009.20
2017-10-03T03:30:51.566Z,1009.21
2017-10-03T03:31:51.482Z,1009.20
2017-10-03T03:32:51.578Z,1009.20
2017-10-03T03:33:51.443Z,1009.17
2017-10-03T03:34:51.489Z,1009.19
2017-10-03T03:35:51.421Z,1009.25
2017-10-03T03:36:51.505Z,1009.21
2017-10-03T03:37:51.368Z,1009.18
2017-10-03T03:38:51.420Z,1009.15
2017-10-03T03:39:51.350Z,1009.14
2017-10-03T03:40:51.439Z,1009.25
2017-10-03T03:41:51.311Z,1009.20
2017-10-03T03:42:51.351Z,1009.18
2017-10-03T03:43:51.281Z,1009.22
2017-10-03T03:44:51.357Z,1009.28
2017-10-03T03:45:51.250Z,1009.25
2017-10-03T03:46:51.273Z,1009.26
2017-10-03T03:47:51.218Z,1009.28
2017-10-03T03:48:51.284Z,1009.19
2017-10-03T03:49:51.194Z,1009.21
2017-10-03T03:50:51.197Z,1009.23
2017-10-03T03:51:51.155Z,1009.19
2017-10-03T03:52:51.214Z,1009.26
2017-10-03T03:53:51.118Z,1009.24
2017-10-03T03:54:51.224Z,1009.31
2017-10-03T03:55:51.086Z,1009.25
2017-10-03T03:56:51.136Z,1009.21
2017-10-03T03:57:51.053Z,1009.26
2017-10-03T03:58:51.148Z,1009.23
2017-10-03T03:59:51.026Z,1009.26
2017-10-03T04:00:51.066Z,1009.26
2017-10-03T04:01:50.990Z,1009.32
2017-10-03T04:02:51.070Z,1009.30
2017-10-03T04:03:50.953Z,1009.31
2017-10-03T04:04:50.988Z,1009.29
2017-10-03T04:05:50.922Z,1009.30
2017-10-03T04:06:51.006Z,1009.32
2017-10-03T04:07:50.896Z,1009.32
2017-10-03T04:08:50.921Z,1009.27
2017-10-03T04:09:50.859Z,1009.26
2017-10-03T04:10:50.932Z,1009.27
2017-10-03T04:11:50.822Z,1009.30
2017-10-03T04:12:50.814Z,1009.32
2017-10-03T04:13:50.853Z,1009.29
2017-10-03T04:14:50.779Z,1009.35
2017-10-03T04:15:50.867Z,1009.35
2017-10-03T04:16:50.744Z,1009.33
2017-10-03T04:17:50.782Z,1009.39
2017-10-03T04:18:50.699Z,1009.39
2017-10-03T04:19:50.792Z,1009.35
2017-10-03T04:20:50.667Z,1009.41
2017-10-03T04:21:50.703Z,1009.40
2017-10-03T04:22:50.643Z,1009.44
2017-10-03T04:23:50.717Z,1009.46
2017-10-03T04:24:50.612Z,1009.52
2017-10-03T04:25:50.631Z,1009.55
2017-10-03T04:26:50.580Z,1009.57
2017-10-03T04:27:50.642Z,1009.51
2017-10-03T04:28:50.547Z,1009.56
2017-10-03T04:29:50.659Z,1009.54
2017-10-03T04:30:50.517Z,1009.56
2017-10-03T04:31:50.570Z,1009.55
2017-10-03T04:32:50.480Z,1009.54
2017-10-03T04:33:50.588Z,1009.55
2017-10-03T04:34:50.436Z,1009.55
2017-10-03T04:35:50.493Z,1009.59
2017-10-03T04:36:50.408Z,1009.63
2017-10-03T04:37:50.510Z,1009.61
2017-10-03T04:38:50.368Z,1009.61
2017-10-03T04:39:50.424Z,1009.70
2017-10-03T04:40:50.342Z,1009.67
2017-10-03T04:41:50.440Z,1009.63
2017-10-03T04:42:50.302Z,1009.70
2017-10-03T04:43:50.347Z,1009.72
2017-10-03T04:44:50.277Z,1009.65
2017-10-03T04:45:50.365Z,1009.70
2017-10-03T04:46:50.244Z,1009.67
2017-10-03T04:47:50.275Z,1009.69
2017-10-03T04:48:50.216Z,1009.73
2017-10-03T04:49:50.289Z,1009.79
2017-10-03T04:50:50.173Z,1009.82
2017-10-03T04:51:50.203Z,1009.86
2017-10-03T04:52:50.144Z,1009.84
2017-10-03T04:53:50.222Z,1009.78
2017-10-03T04:54:50.098Z,1009.83
2017-10-03T04:55:50.139Z,1009.81
2017-10-03T04:56:50.073Z,1009.83
2017-10-03T04:57:50.149Z,1009.82
2017-10-03T04:58:50.040Z,1009.82
2017-10-03T04:59:50.059Z,1009.83
2017-10-03T05:00:50.025Z,1009.87
2017-10-03T05:01:50.073Z,1009.84
2017-10-03T05:02:49.968Z,1009.89
2017-10-03T05:03:49.991Z,1009.86
2017-10-03T05:04:49.936Z,1009.92
2017-10-03T05:05:49.999Z,1009.93
2017-10-03T05:06:49.907Z,1009.91
2017-10-03T05:07:50.015Z,1009.96
2017-10-03T05:08:49.868Z,1009.98
2017-10-03T05:10:49.830Z,1009.91
2017-10-03T05:11:49.942Z,1009.99
2017-10-03T05:12:49.797Z,1009.95
2017-10-03T05:13:49.787Z,1009.93
2017-10-03T05:14:49.861Z,1009.93
2017-10-03T05:15:49.752Z,1009.97
2017-10-03T05:16:49.778Z,1009.98
2017-10-03T05:17:49.730Z,1010.00
2017-10-03T05:18:49.793Z,1010.04
2017-10-03T05:19:49.684Z,1010.07
2017-10-03T05:20:49.801Z,1010.11
2017-10-03T05:21:49.659Z,1010.07
2017-10-03T05:22:49.713Z,1010.16
2017-10-03T05:23:49.615Z,1010.14
2017-10-03T05:24:49.736Z,1010.18
2017-10-03T05:25:49.586Z,1010.15
2017-10-03T05:26:49.641Z,1010.14
2017-10-03T05:27:49.545Z,1010.13
2017-10-03T05:28:49.658Z,1010.17
2017-10-03T05:29:49.521Z,1010.20
2017-10-03T05:30:49.581Z,1010.20
2017-10-03T05:31:49.471Z,1010.24
2017-10-03T05:32:49.584Z,1010.22
2017-10-03T05:33:49.442Z,1010.23
2017-10-03T05:34:49.498Z,1010.24
2017-10-03T05:35:49.408Z,1010.30
2017-10-03T05:36:49.511Z,1010.33
2017-10-03T05:37:49.388Z,1010.36
2017-10-03T05:38:49.423Z,1010.34
2017-10-03T05:39:49.349Z,1010.36
2017-10-03T05:40:49.435Z,1010.39
2017-10-03T05:41:49.304Z,1010.36
2017-10-03T05:42:49.355Z,1010.38
2017-10-03T05:43:49.276Z,1010.43
2017-10-03T05:44:49.363Z,1010.44
2017-10-03T05:45:49.233Z,1010.47
2017-10-03T05:46:49.272Z,1010.45
2017-10-03T05:47:49.211Z,1010.50
2017-10-03T05:48:49.321Z,1010.53
2017-10-03T05:49:49.162Z,1010.53
2017-10-03T05:50:49.202Z,1010.57
2017-10-03T05:51:49.132Z,1010.56
2017-10-03T05:52:49.227Z,1010.59
2017-10-03T05:53:49.095Z,1010.61
2017-10-03T05:54:49.128Z,1010.59
2017-10-03T05:55:49.062Z,1010.60
2017-10-03T05:56:49.156Z,1010.61
2017-10-03T05:57:49.052Z,1010.64
2017-10-03T05:58:49.060Z,1010.66
2017-10-03T05:59:49.013Z,1010.66
2017-10-03T06:00:49.080Z,1010.68
2017-10-03T06:01:48.969Z,1010.74
2017-10-03T06:02:49.076Z,1010.74
2017-10-03T06:03:48.938Z,1010.78
2017-10-03T06:04:48.995Z,1010.79
2017-10-03T06:05:48.914Z,1010.77
2017-10-03T06:06:48.998Z,1010.80
2017-10-03T06:07:48.866Z,1010.81
2017-10-03T06:08:48.927Z,1010.81
2017-10-03T06:09:48.828Z,1010.82
2017-10-03T06:10:48.935Z,1010.82
2017-10-03T06:11:48.800Z,1010.85
2017-10-03T06:12:48.853Z,1010.86
2017-10-03T06:13:48.766Z,1010.86
2017-10-03T06:14:48.752Z,1010.87
2017-10-03T06:15:48.772Z,1010.88
2017-10-03T06:16:48.723Z,1010.92
2017-10-03T06:17:48.786Z,1010.95
2017-10-03T06:18:48.674Z,1010.91
2017-10-03T06:19:48.801Z,1010.95
2017-10-03T06:20:48.648Z,1010.90
2017-10-03T06:21:48.702Z,1010.95
2017-10-03T06:22:48.612Z,1010.91
2017-10-03T06:23:48.717Z,1010.92
2017-10-03T06:24:48.582Z,1010.97
2017-10-03T06:25:48.726Z,1011.00
2017-10-03T06:26:48.550Z,1011.01
2017-10-03T06:27:48.679Z,1011.03
2017-10-03T06:28:48.511Z,1011.08
2017-10-03T06:29:48.567Z,1011.09
2017-10-03T06:30:48.486Z,1011.12
2017-10-03T06:32:48.441Z,1011.13
2017-10-03T06:33:48.494Z,1011.15
2017-10-03T06:34:48.410Z,1011.15
2017-10-03T06:35:48.498Z,1011.15
2017-10-03T06:36:48.374Z,1011.16
2017-10-03T06:37:48.410Z,1011.18
2017-10-03T06:38:48.353Z,1011.18
2017-10-03T06:39:48.428Z,1011.21
2017-10-03T06:40:48.303Z,1011.22
2017-10-03T06:41:48.343Z,1011.24
2017-10-03T06:42:48.279Z,1011.33
2017-10-03T06:43:48.357Z,1011.33
2017-10-03T06:44:48.237Z,1011.41
2017-10-03T06:45:48.261Z,1011.40
2017-10-03T06:46:48.203Z,1011.45
2017-10-03T06:47:48.281Z,1011.45
2017-10-03T06:48:48.175Z,1011.47
2017-10-03T06:49:48.196Z,1011.52
2017-10-03T06:50:48.150Z,1011.54
2017-10-03T06:51:48.210Z,1011.58
2017-10-03T06:52:48.109Z,1011.65
2017-10-03T06:53:48.224Z,1011.66
2017-10-03T06:54:48.073Z,1011.67
2017-10-03T06:55:48.148Z,1011.62
2017-10-03T06:56:48.038Z,1011.62
2017-10-03T06:57:48.144Z,1011.66
2017-10-03T06:58:48.007Z,1011.67
2017-10-03T06:59:48.059Z,1011.68
2017-10-03T07:00:47.974Z,1011.72
2017-10-03T07:01:48.076Z,1011.73
2017-10-03T07:02:47.935Z,1011.75
2017-10-03T07:03:47.993Z,1011.78
2017-10-03T07:04:47.908Z,1011.77
2017-10-03T07:05:48.002Z,1011.77
2017-10-03T07:06:47.869Z,1011.88
2017-10-03T07:07:47.919Z,1011.87
2017-10-03T07:08:47.839Z,1011.90
2017-10-03T07:09:47.928Z,1011.89
2017-10-03T07:10:47.800Z,1011.91
2017-10-03T07:11:47.835Z,1011.94
2017-10-03T07:12:47.767Z,1011.94
2017-10-03T07:13:47.850Z,1011.91
2017-10-03T07:14:47.736Z,1011.95
2017-10-03T07:15:47.735Z,1011.96
2017-10-03T07:16:47.776Z,1011.99
2017-10-03T07:17:47.694Z,1011.97
2017-10-03T07:18:47.788Z,1012.04
2017-10-03T07:19:47.648Z,1012.04
2017-10-03T07:20:47.701Z,1011.99
2017-10-03T07:21:47.623Z,1012.06
2017-10-03T07:22:47.725Z,1012.00
2017-10-03T07:23:47.594Z,1012.02
2017-10-03T07:24:47.623Z,1012.01
2017-10-03T07:25:47.558Z,1012.08
2017-10-03T07:26:47.642Z,1012.10
2017-10-03T07:27:47.521Z,1012.18
2017-10-03T07:28:47.549Z,1012.17
2017-10-03T07:29:47.490Z,1012.14
2017-10-03T07:30:47.574Z,1012.13
2017-10-03T07:31:47.459Z,1012.13
2017-10-03T07:32:47.481Z,1012.20
2017-10-03T07:33:47.429Z,1012.22
2017-10-03T07:34:47.498Z,1012.18
2017-10-03T07:35:47.399Z,1012.17
2017-10-03T07:36:47.514Z,1012.21
2017-10-03T07:37:47.370Z,1012.21
2017-10-03T07:38:47.426Z,1012.25
2017-10-03T07:39:47.337Z,1012.23
2017-10-03T07:40:47.364Z,1012.28
2017-10-03T07:41:47.302Z,1012.20
2017-10-03T07:42:47.348Z,1012.25
2017-10-03T07:43:47.270Z,1012.12
2017-10-03T07:44:47.363Z,1012.12
2017-10-03T07:45:47.237Z,1012.16
2017-10-03T07:46:47.271Z,1012.10
2017-10-03T07:47:47.227Z,1012.16
2017-10-03T07:48:47.983Z,1012.12
2017-10-03T07:49:47.192Z,1012.01
2017-10-03T07:50:47.299Z,1012.08
2017-10-03T07:51:47.164Z,1012.09
2017-10-03T07:52:47.215Z,1012.08
2017-10-03T07:53:47.142Z,1012.15
2017-10-03T07:54:47.228Z,1012.08
2017-10-03T07:55:47.126Z,1012.14
2017-10-03T07:56:47.139Z,1012.16
2017-10-03T07:57:47.108Z,1012.15
2017-10-03T07:58:47.161Z,1012.17
2017-10-03T07:59:47.076Z,1012.18
2017-10-03T08:00:47.172Z,1012.23
2017-10-03T08:01:47.073Z,1012.21
2017-10-03T08:02:47.186Z,1012.20
2017-10-03T08:03:47.041Z,1012.31
2017-10-03T08:04:47.096Z,1012.33
2017-10-03T08:05:47.026Z,1012.35
2017-10-03T08:06:47.112Z,1012.41
2017-10-03T08:07:47.011Z,1012.41
2017-10-03T08:08:47.028Z,1012.34
2017-10-03T08:09:46.976Z,1012.38
2017-10-03T08:10:47.036Z,1012.27
2017-10-03T08:11:46.968Z,1012.40
2017-10-03T08:12:47.061Z,1012.31
2017-10-03T08:13:46.946Z,1012.37
2017-10-03T08:14:47.071Z,1012.36
2017-10-03T08:15:46.940Z,1012.38
2017-10-03T08:16:46.935Z,1012.39
2017-10-03T08:17:46.983Z,1012.45
2017-10-03T08:18:46.905Z,1012.46
2017-10-03T08:20:46.914Z,1012.43
2017-10-03T08:21:47.014Z,1012.43
2017-10-03T08:22:46.879Z,1012.53
2017-10-03T08:23:46.946Z,1012.55
2017-10-03T08:24:46.866Z,1012.57
2017-10-03T08:25:46.946Z,1012.59
2017-10-03T08:26:46.843Z,1012.59
2017-10-03T08:27:46.955Z,1012.62
2017-10-03T08:28:46.822Z,1012.69
2017-10-03T08:29:46.862Z,1012.66
2017-10-03T08:30:46.802Z,1012.72
2017-10-03T08:31:46.966Z,1012.65
2017-10-03T08:32:46.786Z,1012.72
2017-10-03T08:33:46.841Z,1012.67
2017-10-03T08:34:46.759Z,1012.75
2017-10-03T08:35:46.808Z,1012.74
2017-10-03T08:36:46.731Z,1012.72
2017-10-03T08:37:46.893Z,1012.78
2017-10-03T08:38:46.711Z,1012.74
2017-10-03T08:39:46.731Z,1012.84
2017-10-03T08:40:46.686Z,1012.86
2017-10-03T08:41:46.751Z,1012.86
2017-10-03T08:42:46.651Z,1012.86
2017-10-03T08:43:46.771Z,1012.88
2017-10-03T08:44:46.632Z,1012.90
2017-10-03T08:45:46.683Z,1012.91
2017-10-03T08:46:46.640Z,1012.95
2017-10-03T08:47:46.688Z,1012.94
2017-10-03T08:48:46.573Z,1012.94
2017-10-03T08:49:46.614Z,1012.94
2017-10-03T08:50:46.555Z,1012.97
2017-10-03T08:51:46.622Z,1012.98
2017-10-03T08:52:46.525Z,1012.97
2017-10-03T08:53:46.638Z,1012.98
2017-10-03T08:54:46.494Z,1013.07
2017-10-03T08:55:46.551Z,1013.05
2017-10-03T08:56:46.467Z,1013.08
2017-10-03T08:57:46.559Z,1013.08
2017-10-03T08:58:46.433Z,1013.12
2017-10-03T08:59:46.475Z,1013.18
2017-10-03T09:00:46.411Z,1013.21
2017-10-03T09:01:46.485Z,1013.19
2017-10-03T09:02:46.383Z,1013.25
2017-10-03T09:03:46.398Z,1013.26
2017-10-03T09:04:46.363Z,1013.30
2017-10-03T09:05:46.415Z,1013.33
2017-10-03T09:06:46.325Z,1013.32
2017-10-03T09:07:46.426Z,1013.34
2017-10-03T09:08:46.301Z,1013.37
2017-10-03T09:09:46.349Z,1013.37
2017-10-03T09:10:46.274Z,1013.41
2017-10-03T09:11:46.355Z,1013.39
2017-10-03T09:12:46.254Z,1013.39
2017-10-03T09:13:46.265Z,1013.38
2017-10-03T09:14:46.218Z,1013.48
2017-10-03T09:15:46.298Z,1013.46
2017-10-03T09:16:46.193Z,1013.47
2017-10-03T09:17:46.300Z,1013.41
2017-10-03T09:18:46.168Z,1013.43
2017-10-03T09:19:46.209Z,1013.45
2017-10-03T09:20:46.134Z,1013.47
2017-10-03T09:21:46.221Z,1013.52
2017-10-03T09:22:46.102Z,1013.50
2017-10-03T09:23:46.138Z,1013.53
2017-10-03T09:24:46.075Z,1013.40
2017-10-03T09:25:46.149Z,1013.51
2017-10-03T09:26:46.048Z,1013.52
2017-10-03T09:27:46.164Z,1013.49
2017-10-03T09:28:46.027Z,1013.48
2017-10-03T09:29:46.082Z,1013.48
2017-10-03T09:30:45.996Z,1013.47
2017-10-03T09:31:46.094Z,1013.56
2017-10-03T09:32:45.966Z,1013.59
2017-10-03T09:33:46.002Z,1013.59
2017-10-03T09:34:45.940Z,1013.56
2017-10-03T09:35:46.019Z,1013.51
2017-10-03T09:36:45.910Z,1013.60
2017-10-03T09:37:46.032Z,1013.62
2017-10-03T09:38:45.874Z,1013.66
2017-10-03T09:39:45.948Z,1013.67
2017-10-03T09:40:45.850Z,1013.65
2017-10-03T09:41:45.956Z,1013.70
2017-10-03T09:42:45.832Z,1013.70
2017-10-03T09:43:45.828Z,1013.78
2017-10-03T09:44:45.827Z,1013.74
2017-10-03T09:45:45.883Z,1013.76
2017-10-03T09:46:45.797Z,1013.75
2017-10-03T09:47:45.793Z,1013.70
2017-10-03T09:48:45.766Z,1013.73
2017-10-03T09:49:45.812Z,1013.83
2017-10-03T09:50:45.732Z,1013.84
2017-10-03T09:51:45.818Z,1013.90
2017-10-03T09:52:45.698Z,1013.86
2017-10-03T09:53:45.739Z,1013.87
2017-10-03T09:54:45.667Z,1014.00
2017-10-03T09:55:45.753Z,1013.99
2017-10-03T09:56:45.645Z,1013.90
2017-10-03T09:57:45.662Z,1013.93
2017-10-03T09:58:45.615Z,1013.91
2017-10-03T09:59:45.678Z,1013.94
2017-10-03T10:00:45.590Z,1013.95
2017-10-03T10:01:45.685Z,1013.99
2017-10-03T10:02:45.548Z,1013.97
2017-10-03T10:03:45.604Z,1014.00
2017-10-03T10:04:45.527Z,1014.05
2017-10-03T10:05:45.617Z,1014.04
2017-10-03T10:06:45.507Z,1014.03
2017-10-03T10:07:45.536Z,1014.00
2017-10-03T10:08:45.478Z,1014.03
2017-10-03T10:09:45.542Z,1014.08
2017-10-03T10:10:46.027Z,1014.10
2017-10-03T10:11:45.561Z,1014.13
2017-10-03T10:12:45.424Z,1013.94
2017-10-03T10:13:45.471Z,1014.01
2017-10-03T10:14:45.402Z,1014.22
2017-10-03T10:15:45.491Z,1013.93
2017-10-03T10:16:45.390Z,1014.04
2017-10-03T10:17:45.503Z,1014.05
2017-10-03T10:18:45.366Z,1014.08
2017-10-03T10:19:45.366Z,1014.12
2017-10-03T10:20:45.421Z,1014.14
2017-10-03T10:21:45.328Z,1014.18
2017-10-03T10:22:45.429Z,1014.21
2017-10-03T10:23:45.312Z,1014.27
2017-10-03T10:24:45.342Z,1014.45
2017-10-03T10:25:45.282Z,1014.26
2017-10-03T10:26:45.364Z,1014.27
2017-10-03T10:27:45.276Z,1014.19
2017-10-03T10:28:45.379Z,1014.18
2017-10-03T10:29:45.250Z,1014.22
2017-10-03T10:30:45.284Z,1014.53
2017-10-03T10:31:45.213Z,1014.50
2017-10-03T10:32:45.309Z,1014.52
2017-10-03T10:33:45.201Z,1014.44
2017-10-03T10:34:45.310Z,1014.46
2017-10-03T10:35:45.187Z,1014.45
2017-10-03T10:36:45.244Z,1014.45
2017-10-03T10:37:45.184Z,1014.48
2017-10-03T10:38:45.256Z,1014.54
2017-10-03T10:39:45.166Z,1014.41
2017-10-03T10:40:45.258Z,1014.16
2017-10-03T10:41:45.171Z,1014.18
2017-10-03T10:42:45.281Z,1014.32
2017-10-03T10:43:45.154Z,1014.43
2017-10-03T10:44:45.190Z,1014.45
2017-10-03T10:45:45.146Z,1014.73
2017-10-03T10:46:45.207Z,1014.37
2017-10-03T10:47:45.142Z,1014.31
2017-10-03T10:48:45.222Z,1014.38
2017-10-03T10:49:45.136Z,1014.84
2017-10-03T10:50:45.237Z,1014.88
2017-10-03T10:51:45.108Z,1014.88
2017-10-03T10:52:45.144Z,1014.85
2017-10-03T10:53:45.106Z,1014.86
2017-10-03T10:54:45.158Z,1014.27
2017-10-03T10:55:45.104Z,1014.92
2017-10-03T10:56:45.170Z,1014.40
2017-10-03T10:57:45.099Z,1014.37
2017-10-03T10:58:45.184Z,1014.35
2017-10-03T10:59:45.088Z,1014.97
2017-10-03T11:00:45.203Z,1015.01
2017-10-03T11:01:45.075Z,1014.52
2017-10-03T11:02:45.110Z,1014.96
2017-10-03T11:03:45.063Z,1014.97
2017-10-03T11:04:45.069Z,1014.91
2017-10-03T11:05:45.061Z,1014.37
2017-10-03T11:06:45.145Z,1014.40
2017-10-03T11:07:45.043Z,1014.54
2017-10-03T11:08:45.151Z,1014.51
2017-10-03T11:09:45.091Z,1014.42
2017-10-03T11:10:45.067Z,1014.81
2017-10-03T11:11:45.026Z,1014.64
2017-10-03T11:12:45.077Z,1014.90
2017-10-03T11:13:45.034Z,1014.57
2017-10-03T11:14:45.097Z,1014.83
2017-10-03T11:15:45.545Z,1014.33
2017-10-03T11:16:45.105Z,1014.37
2017-10-03T11:17:45.062Z,1014.38
2017-10-03T11:18:45.024Z,1014.49
2017-10-03T11:19:44.982Z,1014.42
2017-10-03T11:20:44.979Z,1014.56
2017-10-03T11:21:45.045Z,1014.60
2017-10-03T11:22:44.961Z,1014.63
2017-10-03T11:23:45.093Z,1014.55
2017-10-03T11:24:44.942Z,1014.45
2017-10-03T11:25:44.969Z,1014.48
2017-10-03T11:26:44.922Z,1014.57
2017-10-03T11:27:44.984Z,1014.62
2017-10-03T11:28:44.909Z,1014.60
2017-10-03T11:29:45.000Z,1014.68
2017-10-03T11:30:44.896Z,1014.73
2017-10-03T11:31:44.910Z,1014.66
2017-10-03T11:32:44.867Z,1014.68
2017-10-03T11:33:44.917Z,1014.72
2017-10-03T11:34:44.838Z,1014.79
2017-10-03T11:35:44.941Z,1014.77
2017-10-03T11:36:44.819Z,1014.75
2017-10-03T11:37:44.852Z,1014.83
2017-10-03T11:38:44.794Z,1014.90
2017-10-03T11:39:44.869Z,1014.86
2017-10-03T11:40:44.777Z,1014.85
2017-10-03T11:41:44.881Z,1014.86
2017-10-03T11:42:44.749Z,1014.85
2017-10-03T11:43:44.791Z,1014.84
2017-10-03T11:44:44.729Z,1014.88
2017-10-03T11:45:44.806Z,1014.89
2017-10-03T11:46:44.706Z,1014.89
2017-10-03T11:47:44.821Z,1014.90
2017-10-03T11:48:44.673Z,1014.92
2017-10-03T11:49:45.604Z,1015.02
2017-10-03T11:50:44.740Z,1015.02
2017-10-03T11:51:44.643Z,1014.86
2017-10-03T11:52:44.757Z,1015.11
2017-10-03T11:53:44.627Z,1014.83
2017-10-03T11:54:44.670Z,1014.87
2017-10-03T11:55:44.607Z,1014.89
2017-10-03T11:56:44.685Z,1014.90
2017-10-03T11:57:44.579Z,1014.83
2017-10-03T11:58:44.691Z,1014.87
2017-10-03T11:59:44.553Z,1014.92
2017-10-03T12:00:44.611Z,1014.88
2017-10-03T12:01:44.537Z,1014.90
2017-10-03T12:02:44.643Z,1014.95
2017-10-03T12:03:44.517Z,1015.02
2017-10-03T12:04:44.538Z,1014.97
2017-10-03T12:05:44.490Z,1015.01
2017-10-03T12:06:44.555Z,1014.95
2017-10-03T12:07:44.471Z,1014.97
2017-10-03T12:08:44.561Z,1014.99